Time;durP1;ratioP1;P1;durP2;ratioP2;P2;SDS_P1;SDS_P2;PMS_P1;PMS_P2;Temp;Humidity;BMP_temperature;BMP_pressure;BME280_temperature;BME280_humidity;BME280_pressure;Samples;Min_cycle;Max_cycle;Signal;HPM_P1;HPM_P2
2021/04/28 00:00:25;;;;;;;5.88;1.90;;;;;;;-146.18;100.00;67994.34;10010754;29;20047;-67
2021/04/28 00:05:22;;;;;;;3.40;1.50;;;;;;;-146.18;100.00;67994.34;9979725;29;20527;-68
2021/04/28 00:10:28;;;;;;;3.42;1.55;;;;;;;-146.18;100.00;67994.34;9997783;29;20051;-68
2021/04/28 00:15:27;;;;;;;3.50;1.55;;;;;;;-146.18;100.00;67994.34;9999192;29;20071;-68
2021/04/28 00:20:25;;;;;;;8.55;1.77;;;;;;;-146.18;100.00;67994.34;10002762;29;20108;-68
2021/04/28 00:25:22;;;;;;;3.63;1.40;;;;;;;-146.18;100.00;67994.34;10000562;29;20052;-67
2021/04/28 00:30:19;;;;;;;4.88;1.65;;;;;;;-146.18;100.00;67994.34;10000870;29;20688;-67
2021/04/28 00:35:16;;;;;;;5.80;1.27;;;;;;;-146.18;100.00;67994.34;10002555;29;20059;-66
2021/04/28 00:40:24;;;;;;;6.00;2.13;;;;;;;-146.18;100.00;67994.34;9995551;29;20499;-67
2021/04/28 00:45:24;;;;;;;4.70;1.35;;;;;;;-146.18;100.00;67994.34;10004280;29;20080;-67
2021/04/28 00:50:33;;;;;;;4.72;1.40;;;;;;;-146.18;100.00;67994.34;10003547;29;20040;-68
2021/04/28 00:55:29;;;;;;;4.68;1.65;;;;;;;-146.18;100.00;67994.34;10000168;29;20044;-68
2021/04/28 01:00:27;;;;;;;5.05;1.67;;;;;;;-146.18;100.00;67994.34;10006388;29;20077;-67
2021/04/28 01:05:23;;;;;;;7.90;1.58;;;;;;;-146.18;100.00;67994.34;9997445;29;20096;-68
2021/04/28 01:10:24;;;;;;;4.22;1.48;;;;;;;-146.18;100.00;67994.34;9994293;29;20443;-68
2021/04/28 01:15:24;;;;;;;5.18;1.40;;;;;;;-146.18;100.00;67994.34;10000282;29;20079;-68
2021/04/28 01:20:22;;;;;;;3.78;1.38;;;;;;;-146.18;100.00;67994.34;9993556;29;20047;-68
2021/04/28 01:25:21;;;;;;;5.82;1.80;;;;;;;-146.18;100.00;67994.34;10016285;29;20055;-67
2021/04/28 01:30:18;;;;;;;3.35;1.27;;;;;;;-146.18;100.00;67994.34;9998002;29;20112;-66
2021/04/28 01:35:16;;;;;;;5.65;1.35;;;;;;;-146.18;100.00;67994.34;9994312;29;20124;-66
2021/04/28 01:40:16;;;;;;;4.53;1.55;;;;;;;-146.18;100.00;67994.34;10006991;29;20075;-67
2021/04/28 01:45:13;;;;;;;4.35;1.45;;;;;;;-146.18;100.00;67994.34;9997540;29;20051;-68
2021/04/28 01:50:11;;;;;;;5.32;1.20;;;;;;;-146.18;100.00;67994.34;9986962;29;20455;-68
2021/04/28 01:55:08;;;;;;;4.32;1.60;;;;;;;-146.18;100.00;67994.34;9990775;29;20733;-68
2021/04/28 02:00:08;;;;;;;5.90;1.60;;;;;;;-146.18;100.00;67994.34;9998453;29;20058;-68
2021/04/28 02:05:06;;;;;;;6.32;1.77;;;;;;;-146.18;100.00;67994.34;9993723;29;20052;-68
2021/04/28 02:10:07;;;;;;;3.33;1.40;;;;;;;-146.18;100.00;67994.34;9988251;29;20100;-68
2021/04/28 02:15:06;;;;;;;3.72;1.42;;;;;;;-146.18;100.00;67994.34;9997696;29;20063;-68
2021/04/28 02:20:09;;;;;;;4.00;1.40;;;;;;;-146.18;100.00;67994.34;10003427;29;20110;-68
2021/04/28 02:25:07;;;;;;;5.00;1.90;;;;;;;-146.18;100.00;67994.34;10008601;29;20055;-68
2021/04/28 02:30:09;;;;;;;4.10;1.60;;;;;;;-146.18;100.00;67994.34;10000799;29;20056;-69
2021/04/28 02:35:06;;;;;;;3.05;1.33;;;;;;;-146.18;100.00;67994.34;10004503;29;20127;-68
2021/04/28 02:40:11;;;;;;;4.72;1.70;;;;;;;-146.18;100.00;67994.34;9999080;29;20052;-67
2021/04/28 02:45:08;;;;;;;3.90;1.77;;;;;;;-146.18;100.00;67994.34;9997599;29;20064;-68
2021/04/28 02:50:06;;;;;;;4.45;1.90;;;;;;;-146.18;100.00;67994.34;9992019;29;20420;-68
2021/04/28 02:55:03;;;;;;;4.78;1.80;;;;;;;-146.18;100.00;67994.34;10005825;29;20115;-68
2021/04/28 03:00:01;;;;;;;4.50;1.70;;;;;;;-146.18;100.00;67994.34;9996921;29;20111;-68
2021/04/28 03:04:58;;;;;;;4.95;1.30;;;;;;;-146.18;100.00;67994.34;9991213;29;20135;-67
2021/04/28 03:09:54;;;;;;;5.80;1.50;;;;;;;-146.18;100.00;67994.34;9995700;29;20062;-68
2021/04/28 03:14:50;;;;;;;4.25;1.80;;;;;;;-146.18;100.00;67994.34;10001467;29;20759;-68
2021/04/28 03:19:49;;;;;;;5.63;1.73;;;;;;;-146.18;100.00;67994.34;10002921;29;20056;-68
2021/04/28 03:24:47;;;;;;;4.95;1.92;;;;;;;-146.18;100.00;67994.34;10002301;29;20167;-68
2021/04/28 03:29:43;;;;;;;3.83;1.75;;;;;;;-146.18;100.00;67994.34;9988949;29;20068;-68
2021/04/28 03:34:39;;;;;;;5.43;1.80;;;;;;;-146.18;100.00;67994.34;9993380;29;20131;-68
2021/04/28 03:39:37;;;;;;;5.45;1.90;;;;;;;-146.18;100.00;67994.34;9977595;29;20079;-68
2021/04/28 03:44:33;;;;;;;4.38;1.90;;;;;;;-146.18;100.00;67994.34;9986163;29;20047;-67
2021/04/28 03:49:29;;;;;;;6.47;2.88;;;;;;;-146.18;100.00;67994.34;9988706;29;20127;-67
2021/04/28 03:54:25;;;;;;;3.70;1.67;;;;;;;-146.18;100.00;67994.34;9986715;29;20531;-68
2021/04/28 03:59:21;;;;;;;6.75;2.10;;;;;;;-146.18;100.00;67994.34;9990998;29;20048;-68
2021/04/28 04:04:17;;;;;;;5.57;2.42;;;;;;;-146.18;100.00;67994.34;9987854;29;20456;-68
2021/04/28 04:09:13;;;;;;;4.85;2.15;;;;;;;-146.18;100.00;67994.34;9986063;29;20036;-68
2021/04/28 04:14:09;;;;;;;6.25;2.00;;;;;;;-146.18;100.00;67994.34;9996403;29;20099;-69
2021/04/28 04:19:05;;;;;;;7.70;3.03;;;;;;;-146.18;100.00;67994.34;9985940;29;20499;-68
2021/04/28 04:24:01;;;;;;;5.90;2.63;;;;;;;-146.18;100.00;67994.34;9988181;29;20056;-68
2021/04/28 04:28:57;;;;;;;6.18;2.63;;;;;;;-146.18;100.00;67994.34;9984264;29;20067;-68
2021/04/28 04:34:01;;;;;;;5.20;2.45;;;;;;;-146.18;100.00;67994.34;9991874;29;20055;-66
2021/04/28 04:38:58;;;;;;;10.32;3.03;;;;;;;-146.18;100.00;67994.34;9987770;29;20138;-66
2021/04/28 04:43:54;;;;;;;6.72;2.78;;;;;;;-146.18;100.00;67994.34;9995032;29;20573;-66
2021/04/28 04:48:50;;;;;;;6.35;2.50;;;;;;;-146.18;100.00;67994.34;10001063;29;20119;-65
2021/04/28 04:53:46;;;;;;;7.20;2.80;;;;;;;-146.18;100.00;67994.34;9985927;29;20506;-65
2021/04/28 04:58:42;;;;;;;6.47;2.83;;;;;;;-146.18;100.00;67994.34;9991435;29;20059;-65
2021/04/28 05:03:38;;;;;;;7.57;2.63;;;;;;;-146.18;100.00;67994.34;9982562;29;20498;-65
2021/04/28 05:08:34;;;;;;;7.72;3.20;;;;;;;-146.18;100.00;67994.34;9997935;29;20150;-66
2021/04/28 05:13:30;;;;;;;6.45;2.80;;;;;;;-146.18;100.00;67994.34;9985909;29;20063;-66
2021/04/28 05:18:26;;;;;;;7.05;2.95;;;;;;;-146.18;100.00;67994.34;9988009;29;20119;-65
2021/04/28 05:23:23;;;;;;;5.57;2.55;;;;;;;-146.18;100.00;67994.34;9996109;29;20452;-66
2021/04/28 05:28:19;;;;;;;6.88;3.03;;;;;;;-146.18;100.00;67994.34;9980620;29;20106;-66
2021/04/28 05:33:15;;;;;;;6.35;3.22;;;;;;;-146.18;100.00;67994.34;9987062;29;20055;-67
2021/04/28 05:38:11;;;;;;;6.43;3.10;;;;;;;-146.18;100.00;67994.34;9982621;29;20500;-66
2021/04/28 05:43:08;;;;;;;9.10;3.45;;;;;;;-146.18;100.00;67994.34;9987913;29;20048;-67
2021/04/28 05:48:05;;;;;;;9.20;3.20;;;;;;;-146.18;100.00;67994.34;9980610;29;20515;-65
2021/04/28 05:53:01;;;;;;;12.10;2.95;;;;;;;-146.18;100.00;67994.34;9979726;29;20048;-66
2021/04/28 05:57:57;;;;;;;8.45;3.38;;;;;;;-146.18;100.00;67994.34;9993560;29;20561;-63
2021/04/28 06:02:53;;;;;;;6.20;3.15;;;;;;;-146.18;100.00;67994.34;9996672;29;20512;-65
2021/04/28 06:07:49;;;;;;;7.88;3.33;;;;;;;-146.18;100.00;67994.34;9988386;29;20056;-64
2021/04/28 06:12:47;;;;;;;7.35;3.28;;;;;;;-146.18;100.00;67994.34;9982268;29;20041;-65
2021/04/28 06:17:44;;;;;;;5.07;2.90;;;;;;;-146.18;100.00;67994.34;9985321;29;20128;-65
2021/04/28 06:22:41;;;;;;;9.23;2.70;;;;;;;-146.18;100.00;67994.34;9985433;29;20047;-64
2021/04/28 06:27:37;;;;;;;12.07;3.03;;;;;;;-146.18;100.00;67994.34;9981631;29;20475;-67
2021/04/28 06:32:34;;;;;;;7.88;3.45;;;;;;;-146.18;100.00;67994.34;9987803;29;20059;-68
2021/04/28 06:37:30;;;;;;;5.97;3.13;;;;;;;-146.18;100.00;67994.34;9981860;29;20056;-68
2021/04/28 06:42:26;;;;;;;7.13;3.72;;;;;;;-146.18;100.00;67994.34;9981849;29;20510;-66
2021/04/28 06:47:22;;;;;;;7.47;2.97;;;;;;;-146.18;100.00;67994.34;9982783;29;21057;-63
2021/04/28 06:52:18;;;;;;;5.82;2.78;;;;;;;-146.18;100.00;67994.34;9984540;29;20056;-65
2021/04/28 06:57:14;;;;;;;11.02;3.95;;;;;;;-146.18;100.00;67994.34;9986268;29;20080;-65
2021/04/28 07:02:10;;;;;;;7.43;3.60;;;;;;;-146.18;100.00;67994.34;9975128;29;20041;-65
2021/04/28 07:07:10;;;;;;;7.35;3.13;;;;;;;-146.18;100.00;67994.34;9990031;29;20396;-65
2021/04/28 07:12:06;;;;;;;6.18;3.08;;;;;;;-146.18;100.00;67994.34;9983774;29;20049;-65
2021/04/28 07:17:02;;;;;;;7.88;3.72;;;;;;;-146.18;100.00;67994.34;10001153;29;20411;-65
2021/04/28 07:21:59;;;;;;;9.18;3.60;;;;;;;-146.18;100.00;67994.34;9990106;29;20063;-65
2021/04/28 07:26:56;;;;;;;6.95;3.75;;;;;;;-146.18;100.00;67994.34;9997881;29;20066;-66
2021/04/28 07:31:52;;;;;;;9.00;3.30;;;;;;;-146.18;100.00;67994.34;10002495;29;20558;-65
2021/04/28 07:36:48;;;;;;;6.68;3.47;;;;;;;-146.18;100.00;67994.34;10001702;29;20107;-66
2021/04/28 07:41:44;;;;;;;6.50;3.50;;;;;;;-146.18;100.00;67994.34;9988664;29;20507;-65
2021/04/28 07:46:41;;;;;;;6.07;3.08;;;;;;;-146.18;100.00;67994.34;9992423;29;20056;-66
2021/04/28 07:51:37;;;;;;;8.95;3.78;;;;;;;-146.18;100.00;67994.34;9990279;29;20116;-66
2021/04/28 07:56:49;;;;;;;7.63;3.63;;;;;;;-146.18;100.00;67994.34;9982435;29;20115;-65
2021/04/28 08:01:45;;;;;;;8.80;4.18;;;;;;;-146.18;100.00;67994.34;9986091;29;20041;-66
2021/04/28 08:06:42;;;;;;;7.95;4.30;;;;;;;-146.18;100.00;67994.34;9975052;29;20400;-66
2021/04/28 08:11:37;;;;;;;6.88;3.55;;;;;;;-146.18;100.00;67994.34;9995603;29;20044;-69
2021/04/28 08:16:35;;;;;;;11.25;4.53;;;;;;;-146.18;100.00;67994.34;9992968;29;20055;-66
2021/04/28 08:21:32;;;;;;;6.75;3.10;;;;;;;-146.18;100.00;67994.34;9999138;29;20700;-64
2021/04/28 08:26:28;;;;;;;6.20;3.20;;;;;;;-146.18;100.00;67994.34;9995112;29;20048;-65
2021/04/28 08:31:24;;;;;;;7.93;3.65;;;;;;;-146.18;100.00;67994.34;9994330;29;20051;-65
2021/04/28 08:36:20;;;;;;;7.43;3.50;;;;;;;-146.18;100.00;67994.34;9991509;29;20044;-69
2021/04/28 08:41:17;;;;;;;8.82;3.78;;;;;;;-146.18;100.00;67994.34;9992423;29;20119;-67
2021/04/28 08:46:13;;;;;;;8.48;3.38;;;;;;;-146.18;100.00;67994.34;9987670;29;20586;-67
2021/04/28 08:51:11;;;;;;;5.72;2.85;;;;;;;-146.18;100.00;67994.34;9994188;29;20573;-67
2021/04/28 08:56:08;;;;;;;7.15;3.55;;;;;;;-146.18;100.00;67994.34;9991756;29;21006;-67
2021/04/28 09:01:05;;;;;;;7.63;2.95;;;;;;;-146.18;100.00;67994.34;9990058;29;20107;-66
2021/04/28 09:06:01;;;;;;;8.15;4.13;;;;;;;-146.18;100.00;67994.34;9994239;29;20581;-64
2021/04/28 09:10:57;;;;;;;6.50;2.83;;;;;;;-146.18;100.00;67994.34;9992989;29;20079;-66
2021/04/28 09:15:53;;;;;;;7.25;3.50;;;;;;;-146.18;100.00;67994.34;9992056;29;20413;-66
2021/04/28 09:20:52;;;;;;;6.63;3.55;;;;;;;-146.18;100.00;67994.34;9991486;29;20048;-66
2021/04/28 09:25:51;;;;;;;6.53;3.20;;;;;;;-146.18;100.00;67994.34;9993289;29;20044;-66
2021/04/28 09:30:48;;;;;;;12.07;3.50;;;;;;;-146.18;100.00;67994.34;9989475;29;20864;-66
2021/04/28 09:35:57;;;;;;;8.52;2.88;;;;;;;-146.18;100.00;67994.34;9991558;29;20080;-67
2021/04/28 09:40:56;;;;;;;79.90;14.40;;;;;;;-146.18;100.00;67994.34;9984195;29;20135;-67
2021/04/28 09:45:54;;;;;;;9.85;4.05;;;;;;;-146.18;100.00;67994.34;9991621;29;20392;-67
2021/04/28 09:51:08;;;;;;;9.32;3.28;;;;;;;-146.18;100.00;67994.34;9986160;29;20430;-66
2021/04/28 09:56:16;;;;;;;6.40;2.67;;;;;;;-146.18;100.00;67994.34;9988830;29;20526;-66
2021/04/28 10:01:17;;;;;;;6.90;2.97;;;;;;;-146.18;100.00;67994.34;9983805;29;20048;-66
2021/04/28 10:06:13;;;;;;;5.30;3.47;;;;;;;-146.18;100.00;67994.34;9964222;29;20045;-66
2021/04/28 10:11:09;;;;;;;5.88;3.15;;;;;;;-146.18;100.00;67994.34;9979583;29;20112;-65
2021/04/28 10:16:05;;;;;;;6.38;4.05;;;;;;;-146.18;100.00;67994.34;9989136;29;20474;-68
2021/04/28 10:21:02;;;;;;;6.07;3.40;;;;;;;-146.18;100.00;67994.34;9977281;29;20044;-64
2021/04/28 10:25:58;;;;;;;5.75;2.17;;;;;;;-146.18;100.00;67994.34;9967871;29;20063;-66
2021/04/28 10:30:55;;;;;;;6.38;3.70;;;;;;;-146.18;100.00;67994.34;9982421;29;20100;-64
2021/04/28 10:35:52;;;;;;;7.32;4.22;;;;;;;-146.18;100.00;67994.34;9973067;29;20044;-66
2021/04/28 10:40:49;;;;;;;7.03;4.15;;;;;;;-146.18;100.00;67994.34;9978572;29;20052;-66
2021/04/28 10:45:45;;;;;;;8.75;4.35;;;;;;;-146.18;100.00;67994.34;9976514;29;20102;-65
2021/04/28 10:51:01;;;;;;;9.85;4.55;;;;;;;-146.18;100.00;67994.34;9978416;29;20068;-68
2021/04/28 10:55:59;;;;;;;7.05;4.68;;;;;;;-146.18;100.00;67994.34;9973432;29;20063;-68
2021/04/28 11:01:04;;;;;;;7.47;4.13;;;;;;;-146.18;100.00;67994.34;9977280;29;20494;-66
2021/04/28 11:06:28;;;;;;;10.25;4.40;;;;;;;-146.18;100.00;67994.34;9974974;29;20685;-65
2021/04/28 11:11:41;;;;;;;11.80;5.63;;;;;;;-146.18;100.00;67994.34;9975783;29;20051;-64
2021/04/28 11:16:49;;;;;;;10.85;4.82;;;;;;;-146.18;100.00;67994.34;9979958;29;20099;-65
2021/04/28 11:21:45;;;;;;;8.68;5.60;;;;;;;-146.18;100.00;67994.34;9976329;29;20051;-65
2021/04/28 11:26:51;;;;;;;10.02;4.75;;;;;;;-146.18;100.00;67994.34;9981346;29;20749;-64
2021/04/28 11:31:49;;;;;;;8.80;4.63;;;;;;;-146.18;100.00;67994.34;9980795;29;20056;-65
2021/04/28 11:36:59;;;;;;;7.95;4.88;;;;;;;-146.18;100.00;67994.34;9984668;29;20583;-64
2021/04/28 11:42:04;;;;;;;9.77;5.82;;;;;;;-146.18;100.00;67994.34;9990262;29;20499;-65
2021/04/28 11:47:09;;;;;;;7.35;5.13;;;;;;;-146.18;100.00;67994.34;9979870;29;20068;-67
2021/04/28 11:52:05;;;;;;;9.18;5.15;;;;;;;-146.18;100.00;67994.34;9980831;29;20053;-65
2021/04/28 11:57:02;;;;;;;11.82;5.97;;;;;;;-146.18;100.00;67994.34;9983832;29;20483;-66
2021/04/28 12:02:04;;;;;;;9.05;5.85;;;;;;;-146.18;100.00;67994.34;9982176;29;20111;-67
2021/04/28 12:07:02;;;;;;;8.30;5.35;;;;;;;-146.18;100.00;67994.34;9976613;29;20087;-66
2021/04/28 12:12:09;;;;;;;12.43;6.35;;;;;;;-146.18;100.00;67994.34;9986876;29;20702;-66
2021/04/28 12:17:06;;;;;;;9.05;5.70;;;;;;;-146.18;100.00;67994.34;9986978;29;20060;-65
2021/04/28 12:22:07;;;;;;;9.73;6.45;;;;;;;-146.18;100.00;67994.34;9993651;29;20056;-65
2021/04/28 12:27:10;;;;;;;9.40;6.60;;;;;;;-146.18;100.00;67994.34;9991496;29;20084;-65
2021/04/28 12:32:07;;;;;;;10.32;6.68;;;;;;;-146.18;100.00;67994.34;9984423;29;20135;-66
2021/04/28 12:37:23;;;;;;;9.85;6.30;;;;;;;-146.18;100.00;67994.34;9986779;29;20052;-66
2021/04/28 12:42:25;;;;;;;8.38;6.22;;;;;;;-146.18;100.00;67994.34;9980772;29;20592;-67
2021/04/28 12:47:33;;;;;;;17.75;6.75;;;;;;;-146.18;100.00;67994.34;9979654;29;20519;-66
2021/04/28 12:52:38;;;;;;;9.45;7.35;;;;;;;-146.18;100.00;67994.34;9980681;29;20507;-67
2021/04/28 12:57:34;;;;;;;13.82;7.38;;;;;;;-146.18;100.00;67994.34;9982926;29;20140;-67
2021/04/28 13:02:31;;;;;;;13.18;7.30;;;;;;;-146.18;100.00;67994.34;9990718;29;20115;-67
2021/04/28 13:07:27;;;;;;;10.52;6.40;;;;;;;-146.18;100.00;67994.34;9965242;29;20048;-67
2021/04/28 13:12:34;;;;;;;12.85;7.30;;;;;;;-146.18;100.00;67994.34;9989270;29;20083;-67
2021/04/28 13:18:00;;;;;;;9.52;6.82;;;;;;;-146.18;100.00;67994.34;9988504;29;20044;-65
2021/04/28 13:23:13;;;;;;;9.57;7.30;;;;;;;-146.18;100.00;67994.34;9991654;29;20052;-66
2021/04/28 13:28:33;;;;;;;9.80;7.00;;;;;;;-146.18;100.00;67994.34;9982186;29;20096;-65
2021/04/28 13:33:39;;;;;;;15.13;7.70;;;;;;;-146.18;100.00;67994.34;9988945;29;20104;-67
2021/04/28 13:38:52;;;;;;;10.85;7.00;;;;;;;-146.18;100.00;67994.34;9985166;29;20052;-66
2021/04/28 13:43:48;;;;;;;12.35;6.78;;;;;;;-146.18;100.00;67994.34;9988016;29;20067;-65
2021/04/28 13:48:44;;;;;;;12.02;6.53;;;;;;;-146.18;100.00;67994.34;9983716;29;20052;-65
2021/04/28 13:53:40;;;;;;;11.57;6.93;;;;;;;-146.18;100.00;67994.34;9988456;29;20511;-68
2021/04/28 13:58:36;;;;;;;12.13;6.75;;;;;;;-146.18;100.00;67994.34;9988159;29;20075;-65
2021/04/28 14:03:33;;;;;;;12.90;7.53;;;;;;;-146.18;100.00;67994.34;9991975;29;20051;-65
2021/04/28 14:08:31;;;;;;;10.07;6.05;;;;;;;-146.18;100.00;67994.34;9995270;29;20048;-65
2021/04/28 14:13:26;;;;;;;11.25;7.35;;;;;;;-146.18;100.00;67994.34;9989669;29;20104;-63
2021/04/28 14:18:24;;;;;;;11.52;6.57;;;;;;;-146.18;100.00;67994.34;9980889;29;20669;-64
2021/04/28 14:23:20;;;;;;;11.05;6.13;;;;;;;-146.18;100.00;67994.34;9972860;29;20129;-65
2021/04/28 14:28:16;;;;;;;9.60;6.43;;;;;;;-146.18;100.00;67994.34;9970036;29;20081;-69
2021/04/28 14:33:13;;;;;;;13.25;7.63;;;;;;;-146.18;100.00;67994.34;9978407;29;20113;-66
2021/04/28 14:38:09;;;;;;;9.77;6.53;;;;;;;-146.18;100.00;67994.34;9979821;29;20048;-66
2021/04/28 14:43:05;;;;;;;11.93;6.07;;;;;;;-146.18;100.00;67994.34;9980763;29;20441;-65
2021/04/28 14:48:01;;;;;;;11.50;7.05;;;;;;;-146.18;100.00;67994.34;9982450;29;20629;-64
2021/04/28 14:52:57;;;;;;;13.23;8.02;;;;;;;-146.18;100.00;67994.34;9973115;29;20055;-65
2021/04/28 14:57:53;;;;;;;11.00;7.28;;;;;;;-146.18;100.00;67994.34;9971091;29;20540;-66
2021/04/28 15:02:49;;;;;;;9.85;6.28;;;;;;;-146.18;100.00;67994.34;9980070;29;20119;-65
2021/04/28 15:07:46;;;;;;;9.98;5.35;;;;;;;-146.18;100.00;67994.34;9979417;29;20257;-66
2021/04/28 15:12:42;;;;;;;7.78;5.45;;;;;;;-146.18;100.00;67994.34;9987355;29;20650;-65
2021/04/28 15:17:38;;;;;;;10.60;6.53;;;;;;;-146.18;100.00;67994.34;9990191;29;20048;-65
2021/04/28 15:22:34;;;;;;;10.70;6.55;;;;;;;-146.18;100.00;67994.34;9983819;29;20048;-65
2021/04/28 15:27:30;;;;;;;10.30;5.88;;;;;;;-146.18;100.00;67994.34;9994865;29;20044;-67
2021/04/28 15:32:26;;;;;;;7.90;5.50;;;;;;;-146.18;100.00;67994.34;9974617;29;20111;-65
2021/04/28 15:37:23;;;;;;;11.60;5.72;;;;;;;-146.18;100.00;67994.34;9980129;29;20045;-64
2021/04/28 15:42:19;;;;;;;9.82;6.22;;;;;;;-146.18;100.00;67994.34;9985717;29;20064;-66
2021/04/28 15:47:15;;;;;;;10.70;5.88;;;;;;;-146.18;100.00;67994.34;9986207;29;20143;-62
2021/04/28 15:52:11;;;;;;;10.65;5.82;;;;;;;-146.18;100.00;67994.34;9979627;29;20052;-66
2021/04/28 15:57:07;;;;;;;8.63;5.30;;;;;;;-146.18;100.00;67994.34;9981885;29;20079;-64
2021/04/28 16:02:03;;;;;;;10.30;5.72;;;;;;;-146.18;100.00;67994.34;9992390;29;20052;-62
2021/04/28 16:07:00;;;;;;;7.65;5.07;;;;;;;-146.18;100.00;67994.34;9993304;29;20044;-62
2021/04/28 16:11:56;;;;;;;12.10;5.95;;;;;;;-146.18;100.00;67994.34;9990826;29;20044;-64
2021/04/28 16:16:53;;;;;;;11.15;6.65;;;;;;;-146.18;100.00;67994.34;9986822;29;20067;-64
2021/04/28 16:21:49;;;;;;;10.70;5.10;;;;;;;-146.18;100.00;67994.34;9986218;29;20152;-64
2021/04/28 16:26:46;;;;;;;13.70;6.03;;;;;;;-146.18;100.00;67994.34;9982477;29;20514;-64
2021/04/28 16:31:43;;;;;;;11.68;6.15;;;;;;;-146.18;100.00;67994.34;9992111;29;20052;-65
2021/04/28 16:36:40;;;;;;;10.77;6.78;;;;;;;-146.18;100.00;67994.34;9985655;29;20088;-66
2021/04/28 16:41:36;;;;;;;11.65;7.03;;;;;;;-146.18;100.00;67994.34;9990650;29;20107;-65
2021/04/28 16:46:33;;;;;;;10.75;6.65;;;;;;;-146.18;100.00;67994.34;9981178;29;20058;-65
2021/04/28 16:51:29;;;;;;;10.43;5.40;;;;;;;-146.18;100.00;67994.34;9980340;29;20079;-64
2021/04/28 16:56:25;;;;;;;12.68;6.88;;;;;;;-146.18;100.00;67994.34;9980395;29;20058;-64
2021/04/28 17:01:21;;;;;;;9.60;5.38;;;;;;;-146.18;100.00;67994.34;9976078;29;20506;-63
2021/04/28 17:06:17;;;;;;;9.07;5.72;;;;;;;-146.18;100.00;67994.34;9977821;29;20052;-62
2021/04/28 17:11:14;;;;;;;13.82;6.82;;;;;;;-146.18;100.00;67994.34;9979709;29;20051;-62
2021/04/28 17:16:11;;;;;;;9.38;5.97;;;;;;;-146.18;100.00;67994.34;9975458;29;20385;-62
2021/04/28 17:21:07;;;;;;;10.57;6.30;;;;;;;-146.18;100.00;67994.34;9978601;29;21680;-64
2021/04/28 17:26:03;;;;;;;10.05;5.82;;;;;;;-146.18;100.00;67994.34;9978245;29;20052;-65
2021/04/28 17:30:59;;;;;;;13.23;6.53;;;;;;;-146.18;100.00;67994.34;9989670;29;20136;-65
2021/04/28 17:35:55;;;;;;;9.20;5.32;;;;;;;-146.18;100.00;67994.34;9981876;29;20475;-65
2021/04/28 17:40:51;;;;;;;10.15;5.45;;;;;;;-146.18;100.00;67994.34;9981463;29;20052;-63
2021/04/28 17:45:47;;;;;;;14.88;6.22;;;;;;;-146.18;100.00;67994.34;9979018;29;20095;-64
2021/04/28 17:50:43;;;;;;;13.82;6.07;;;;;;;-146.18;100.00;67994.34;9978091;29;20056;-65
2021/04/28 17:55:39;;;;;;;13.18;6.70;;;;;;;-146.18;100.00;67994.34;9979469;29;20048;-65
2021/04/28 18:00:35;;;;;;;15.75;6.20;;;;;;;-146.18;100.00;67994.34;9982070;29;20048;-64
2021/04/28 18:05:31;;;;;;;10.20;6.00;;;;;;;-146.18;100.00;67994.34;9980698;29;20048;-65
2021/04/28 18:10:27;;;;;;;12.35;5.82;;;;;;;-146.18;100.00;67994.34;9978245;29;20051;-65
2021/04/28 18:15:23;;;;;;;9.20;5.15;;;;;;;-146.18;100.00;67994.34;9966794;29;20072;-66
2021/04/28 18:20:19;;;;;;;9.63;5.40;;;;;;;-146.18;100.00;67994.34;9971379;29;20052;-64
2021/04/28 18:25:16;;;;;;;11.43;6.78;;;;;;;-146.18;100.00;67994.34;9978325;29;20451;-64
2021/04/28 18:30:12;;;;;;;12.77;7.70;;;;;;;-146.18;100.00;67994.34;9971678;29;20053;-66
2021/04/28 18:35:11;;;;;;;15.75;9.20;;;;;;;-146.18;100.00;67994.34;9961930;29;20142;-66
2021/04/28 18:40:07;;;;;;;15.57;7.53;;;;;;;-146.18;100.00;67994.34;9963958;29;20059;-66
2021/04/28 18:45:06;;;;;;;14.32;7.13;;;;;;;-146.18;100.00;67994.34;9969537;29;20115;-66
2021/04/28 18:50:04;;;;;;;13.48;5.80;;;;;;;-146.18;100.00;67994.34;9970633;29;20179;-66
2021/04/28 18:55:00;;;;;;;11.23;5.75;;;;;;;-146.18;100.00;67994.34;9980321;29;20502;-63
2021/04/28 18:59:56;;;;;;;13.02;6.70;;;;;;;-146.18;100.00;67994.34;9966882;29;20112;-67
2021/04/28 19:04:52;;;;;;;11.07;6.22;;;;;;;-146.18;100.00;67994.34;9977766;29;20714;-67
2021/04/28 19:09:48;;;;;;;11.98;6.10;;;;;;;-146.18;100.00;67994.34;9977206;29;20044;-65
2021/04/28 19:14:45;;;;;;;14.43;7.50;;;;;;;-146.18;100.00;67994.34;9971061;29;20044;-65
2021/04/28 19:19:42;;;;;;;13.98;6.85;;;;;;;-146.18;100.00;67994.34;9974723;29;20071;-65
2021/04/28 19:24:39;;;;;;;15.07;6.80;;;;;;;-146.18;100.00;67994.34;9978113;29;20044;-69
2021/04/28 19:29:35;;;;;;;14.48;7.70;;;;;;;-146.18;100.00;67994.34;9970001;29;20086;-65
2021/04/28 19:34:31;;;;;;;13.60;7.63;;;;;;;-146.18;100.00;67994.34;9974357;29;20056;-66
2021/04/28 19:39:27;;;;;;;11.75;7.80;;;;;;;-146.18;100.00;67994.34;9969051;29;20167;-67
2021/04/28 19:44:23;;;;;;;12.45;7.28;;;;;;;-146.18;100.00;67994.34;9975768;29;20610;-66
2021/04/28 19:49:19;;;;;;;14.60;7.85;;;;;;;-146.18;100.00;67994.34;9979732;29;20542;-67
2021/04/28 19:54:16;;;;;;;13.32;8.18;;;;;;;-146.18;100.00;67994.34;9979545;29;20063;-67
2021/04/28 19:59:12;;;;;;;17.20;7.45;;;;;;;-146.18;100.00;67994.34;9976947;29;20055;-66
2021/04/28 20:04:08;;;;;;;14.48;7.68;;;;;;;-146.18;100.00;67994.34;9984782;29;20060;-65
2021/04/28 20:09:04;;;;;;;14.32;7.57;;;;;;;-146.18;100.00;67994.34;9984452;29;20059;-60
2021/04/28 20:14:00;;;;;;;16.08;7.05;;;;;;;-146.18;100.00;67994.34;9985935;29;20106;-68
2021/04/28 20:18:57;;;;;;;9.27;6.40;;;;;;;-146.18;100.00;67994.34;9964067;29;20603;-69
2021/04/28 20:23:52;;;;;;;13.40;7.72;;;;;;;-146.18;100.00;67994.34;9967636;29;20052;-68
2021/04/28 20:28:49;;;;;;;14.57;7.95;;;;;;;-146.18;100.00;67994.34;9976328;29;20052;-68
2021/04/28 20:33:49;;;;;;;19.40;8.10;;;;;;;-146.18;100.00;67994.34;9983559;29;20052;-69
2021/04/28 20:38:46;;;;;;;10.70;6.45;;;;;;;-146.18;100.00;67994.34;9980569;29;20063;-68
2021/04/28 20:43:43;;;;;;;16.15;7.43;;;;;;;-146.18;100.00;67994.34;9977956;29;20048;-69
2021/04/28 20:48:39;;;;;;;13.88;7.22;;;;;;;-146.18;100.00;67994.34;9981401;29;20218;-69
2021/04/28 20:53:35;;;;;;;12.77;6.63;;;;;;;-146.18;100.00;67994.34;9987794;29;20055;-69
2021/04/28 20:58:31;;;;;;;12.23;7.32;;;;;;;-146.18;100.00;67994.34;9974335;29;20048;-70
2021/04/28 21:03:27;;;;;;;11.02;6.70;;;;;;;-146.18;100.00;67994.34;9988275;29;20100;-67
2021/04/28 21:08:23;;;;;;;16.00;8.02;;;;;;;-146.18;100.00;67994.34;9990136;29;20051;-67
2021/04/28 21:13:19;;;;;;;13.65;6.65;;;;;;;-146.18;100.00;67994.34;9986894;29;20103;-67
2021/04/28 21:18:15;;;;;;;15.93;7.03;;;;;;;-146.18;100.00;67994.34;9991399;29;20062;-67
2021/04/28 21:23:12;;;;;;;11.23;6.82;;;;;;;-146.18;100.00;67994.34;9982754;29;20048;-68
2021/04/28 21:28:08;;;;;;;13.60;7.18;;;;;;;-146.18;100.00;67994.34;9990988;29;20044;-67
2021/04/28 21:33:04;;;;;;;16.17;7.20;;;;;;;-146.18;100.00;67994.34;9985273;29;20060;-67
2021/04/28 21:38:00;;;;;;;11.98;7.07;;;;;;;-146.18;100.00;67994.34;9987746;29;20430;-68
2021/04/28 21:42:56;;;;;;;10.18;6.32;;;;;;;-146.18;100.00;67994.34;9985038;29;20142;-68
2021/04/28 21:47:52;;;;;;;11.48;6.40;;;;;;;-146.18;100.00;67994.34;9983641;29;20050;-68
2021/04/28 21:52:48;;;;;;;12.65;7.03;;;;;;;-146.18;100.00;67994.34;9984087;29;20387;-68
2021/04/28 21:57:44;;;;;;;13.45;6.70;;;;;;;-146.18;100.00;67994.34;9987725;29;20060;-69
2021/04/28 22:02:41;;;;;;;11.98;6.80;;;;;;;-146.18;100.00;67994.34;9991280;29;20036;-67
2021/04/28 22:07:39;;;;;;;10.85;7.07;;;;;;;-146.18;100.00;67994.34;9988061;29;20072;-67
2021/04/28 22:12:35;;;;;;;17.48;7.72;;;;;;;-146.18;100.00;67994.34;9986489;29;21180;-68
2021/04/28 22:17:31;;;;;;;12.10;7.10;;;;;;;-146.18;100.00;67994.34;9984518;29;20459;-68
2021/04/28 22:22:27;;;;;;;9.90;6.25;;;;;;;-146.18;100.00;67994.34;9991524;29;20048;-68